createdAt,value
2022-11-05T00:00:16.310Z,9.55
2022-11-05T00:01:16.406Z,9.53
2022-11-05T00:02:16.305Z,9.50
2022-11-05T00:03:16.362Z,9.45
2022-11-05T00:04:16.310Z,9.45
2022-11-05T00:05:16.272Z,9.45
2022-11-05T00:06:16.395Z,9.45
2022-11-05T00:07:16.246Z,9.48
2022-11-05T00:08:16.258Z,9.48
2022-11-05T00:09:16.207Z,9.44
2022-11-05T00:10:16.204Z,9.42
2022-11-05T00:11:18.259Z,9.38
2022-11-05T00:12:16.187Z,9.38
2022-11-05T00:13:16.206Z,9.35
2022-11-05T00:14:16.147Z,9.34
2022-11-05T00:15:16.119Z,9.32
2022-11-05T00:16:16.155Z,9.31
2022-11-05T00:17:16.104Z,9.30
2022-11-05T00:18:16.146Z,9.31
2022-11-05T00:19:16.074Z,9.30
2022-11-05T00:20:16.113Z,9.30
2022-11-05T00:21:16.061Z,9.27
2022-11-05T00:22:16.018Z,9.26
2022-11-05T00:23:16.062Z,9.23
2022-11-05T00:24:20.395Z,9.24
2022-11-05T00:25:17.023Z,9.24
2022-11-05T00:26:15.981Z,9.22
2022-11-05T00:27:16.013Z,9.22
2022-11-05T00:28:16.000Z,9.20
2022-11-05T00:29:15.964Z,9.20
2022-11-05T00:30:15.995Z,9.16
2022-11-05T00:31:15.960Z,9.15
2022-11-05T00:32:15.932Z,9.15
2022-11-05T00:33:15.930Z,9.13
2022-11-05T00:34:15.915Z,9.13
2022-11-05T00:35:15.908Z,9.13
2022-11-05T00:36:15.908Z,9.10
2022-11-05T00:37:15.891Z,9.10
2022-11-05T00:38:15.873Z,9.08
2022-11-05T00:39:15.817Z,9.03
2022-11-05T00:40:15.792Z,9.00
2022-11-05T00:41:15.779Z,8.94
2022-11-05T00:42:15.781Z,8.94
2022-11-05T00:43:15.801Z,8.93
2022-11-05T00:44:15.773Z,8.91
2022-11-05T00:45:15.740Z,8.91
2022-11-05T00:46:15.729Z,8.91
2022-11-05T00:47:15.739Z,8.88
2022-11-05T00:48:15.769Z,8.88
2022-11-05T00:49:15.687Z,8.85
2022-11-05T00:50:15.700Z,8.83
2022-11-05T00:51:15.665Z,8.82
2022-11-05T00:52:15.635Z,8.80
2022-11-05T00:53:15.644Z,8.80
2022-11-05T00:54:15.645Z,8.78
2022-11-05T00:55:15.620Z,8.78
2022-11-05T00:56:15.642Z,8.76
2022-11-05T00:57:15.596Z,8.76
2022-11-05T00:58:15.586Z,8.75
2022-11-05T00:59:15.619Z,8.71
2022-11-05T01:00:15.555Z,8.71
2022-11-05T01:01:15.759Z,8.70
2022-11-05T01:02:15.627Z,8.67
2022-11-05T01:03:15.809Z,8.65
2022-11-05T01:04:15.485Z,8.64
2022-11-05T01:05:15.478Z,8.63
2022-11-05T01:06:15.456Z,8.60
2022-11-05T01:07:15.458Z,8.60
2022-11-05T01:08:15.448Z,8.58
2022-11-05T01:09:15.449Z,8.60
2022-11-05T01:10:15.405Z,8.58
2022-11-05T01:11:15.419Z,8.55
2022-11-05T01:12:15.388Z,8.54
2022-11-05T01:13:15.886Z,8.52
2022-11-05T01:14:15.386Z,8.52
2022-11-05T01:15:15.350Z,8.52
2022-11-05T01:16:15.341Z,8.47
2022-11-05T01:17:15.325Z,8.47
2022-11-05T01:18:15.293Z,8.47
2022-11-05T01:19:15.318Z,8.46
2022-11-05T01:20:15.275Z,8.42
2022-11-05T01:21:15.277Z,8.43
2022-11-05T01:22:15.257Z,8.40
2022-11-05T01:23:15.676Z,8.40
2022-11-05T01:24:15.240Z,8.42
2022-11-05T01:25:15.221Z,8.42
2022-11-05T01:26:15.205Z,8.42
2022-11-05T01:27:15.195Z,8.40
2022-11-05T01:28:15.236Z,8.39
2022-11-05T01:29:15.230Z,8.39
2022-11-05T01:30:15.151Z,8.34
2022-11-05T01:31:15.130Z,8.36
2022-11-05T01:32:15.124Z,8.32
2022-11-05T01:33:15.333Z,8.32
2022-11-05T01:34:15.098Z,8.31
2022-11-05T01:35:15.078Z,8.29
2022-11-05T01:36:15.059Z,8.27
2022-11-05T01:37:15.072Z,8.28
2022-11-05T01:38:15.109Z,8.28
2022-11-05T01:39:15.074Z,8.29
2022-11-05T01:40:14.999Z,8.28
2022-11-05T01:41:15.070Z,8.27
2022-11-05T01:42:15.001Z,8.25
2022-11-05T01:43:14.979Z,8.28
2022-11-05T01:44:14.981Z,8.25
2022-11-05T01:45:14.959Z,8.27
2022-11-05T01:46:14.936Z,8.27
2022-11-05T01:47:14.948Z,8.29
2022-11-05T01:48:14.919Z,8.32
2022-11-05T01:49:14.908Z,8.34
2022-11-05T01:50:14.883Z,8.36
2022-11-05T01:51:14.891Z,8.36
2022-11-05T01:52:14.880Z,8.39
2022-11-05T01:53:14.860Z,8.39
2022-11-05T01:54:14.827Z,8.39
2022-11-05T01:55:14.839Z,8.39
2022-11-05T01:56:14.823Z,8.39
2022-11-05T01:57:14.813Z,8.39
2022-11-05T01:58:14.800Z,8.37
2022-11-05T01:59:14.769Z,8.36
2022-11-05T02:00:14.779Z,8.34
2022-11-05T02:01:14.744Z,8.31
2022-11-05T02:02:14.908Z,8.31
2022-11-05T02:03:14.887Z,8.31
2022-11-05T02:04:14.704Z,8.28
2022-11-05T02:05:14.718Z,8.29
2022-11-05T02:06:14.708Z,8.25
2022-11-05T02:07:14.687Z,8.25
2022-11-05T02:08:14.677Z,8.22
2022-11-05T02:09:14.674Z,8.21
2022-11-05T02:10:14.654Z,8.18
2022-11-05T02:11:14.634Z,8.17
2022-11-05T02:12:14.611Z,8.17
2022-11-05T02:13:14.600Z,8.14
2022-11-05T02:14:14.578Z,8.14
2022-11-05T02:15:14.595Z,8.12
2022-11-05T02:16:14.545Z,8.07
2022-11-05T02:17:14.563Z,8.04
2022-11-05T02:18:14.528Z,8.04
2022-11-05T02:19:14.546Z,8.06
2022-11-05T02:20:14.516Z,8.09
2022-11-05T02:21:14.496Z,8.09
2022-11-05T02:22:14.472Z,8.10
2022-11-05T02:23:14.469Z,8.10
2022-11-05T02:24:14.466Z,8.13
2022-11-05T02:25:14.485Z,8.13
2022-11-05T02:26:14.455Z,8.14
2022-11-05T02:27:14.422Z,8.18
2022-11-05T02:28:14.390Z,8.21
2022-11-05T02:29:14.411Z,8.22
2022-11-05T02:30:14.409Z,8.21
2022-11-05T02:31:14.380Z,8.24
2022-11-05T02:32:14.341Z,8.25
2022-11-05T02:33:14.502Z,8.25
2022-11-05T02:34:14.340Z,8.27
2022-11-05T02:35:14.344Z,8.29
2022-11-05T02:36:14.304Z,8.28
2022-11-05T02:37:14.290Z,8.28
2022-11-05T02:38:14.285Z,8.27
2022-11-05T02:39:14.287Z,8.27
2022-11-05T02:40:14.261Z,8.27
2022-11-05T02:41:14.262Z,8.29
2022-11-05T02:42:14.211Z,8.29
2022-11-05T02:43:14.200Z,8.29
2022-11-05T02:44:14.191Z,8.29
2022-11-05T02:45:14.184Z,8.29
2022-11-05T02:46:14.178Z,8.28
2022-11-05T02:47:18.023Z,8.27
2022-11-05T02:48:14.163Z,8.27
2022-11-05T02:49:14.151Z,8.27
2022-11-05T02:50:14.108Z,8.24
2022-11-05T02:51:14.143Z,8.24
2022-11-05T02:52:14.086Z,8.22
2022-11-05T02:53:14.175Z,8.22
2022-11-05T02:54:14.059Z,8.18
2022-11-05T02:55:14.036Z,8.17
2022-11-05T02:56:14.070Z,8.17
2022-11-05T02:57:14.026Z,8.13
2022-11-05T02:58:14.014Z,8.10
2022-11-05T02:59:14.027Z,8.09
2022-11-05T03:00:14.016Z,8.07
2022-11-05T03:01:14.008Z,8.04
2022-11-05T03:02:14.118Z,8.04
2022-11-05T03:03:14.047Z,8.06
2022-11-05T03:04:13.946Z,8.06
2022-11-05T03:05:13.916Z,8.07
2022-11-05T03:06:13.913Z,8.09
2022-11-05T03:07:13.904Z,8.10
2022-11-05T03:08:13.868Z,8.12
2022-11-05T03:09:13.868Z,8.13
2022-11-05T03:10:13.844Z,8.14
2022-11-05T03:11:13.865Z,8.18
2022-11-05T03:12:13.823Z,8.18
2022-11-05T03:13:13.992Z,8.20
2022-11-05T03:14:13.816Z,8.18
2022-11-05T03:15:13.807Z,8.21
2022-11-05T03:16:13.791Z,8.24
2022-11-05T03:17:13.768Z,8.24
2022-11-05T03:18:13.767Z,8.24
2022-11-05T03:19:13.747Z,8.22
2022-11-05T03:20:13.737Z,8.24
2022-11-05T03:21:13.737Z,8.27
2022-11-05T03:22:13.692Z,8.27
2022-11-05T03:23:14.037Z,8.25
2022-11-05T03:24:13.702Z,8.27
2022-11-05T03:25:13.673Z,8.29
2022-11-05T03:26:13.695Z,8.29
2022-11-05T03:27:13.634Z,8.31
2022-11-05T03:28:13.612Z,8.31
2022-11-05T03:29:13.625Z,8.31
2022-11-05T03:30:13.584Z,8.29
2022-11-05T03:31:13.594Z,8.28
2022-11-05T03:32:13.614Z,8.25
2022-11-05T03:33:13.927Z,8.28
2022-11-05T03:34:13.548Z,8.25
2022-11-05T03:35:13.567Z,8.25
2022-11-05T03:36:13.536Z,8.24
2022-11-05T03:37:13.535Z,8.24
2022-11-05T03:38:13.503Z,8.22
2022-11-05T03:39:13.507Z,8.18
2022-11-05T03:40:13.476Z,8.14
2022-11-05T03:41:13.592Z,8.13
2022-11-05T03:42:13.469Z,8.09
2022-11-05T03:43:13.865Z,8.07
2022-11-05T03:44:13.421Z,8.04
2022-11-05T03:45:13.410Z,8.03
2022-11-05T03:46:13.391Z,8.04
2022-11-05T03:47:13.387Z,8.03
2022-11-05T03:48:13.462Z,8.02
2022-11-05T03:49:13.341Z,8.02
2022-11-05T03:50:13.355Z,7.96
2022-11-05T03:51:21.338Z,7.92
2022-11-05T03:52:21.233Z,7.94
2022-11-05T03:53:13.566Z,7.92
2022-11-05T03:54:13.307Z,7.91
2022-11-05T03:55:13.294Z,7.91
2022-11-05T03:56:13.304Z,7.89
2022-11-05T03:57:13.288Z,7.91
2022-11-05T03:58:13.241Z,7.88
2022-11-05T03:59:13.255Z,7.86
2022-11-05T04:00:13.225Z,7.85
2022-11-05T04:01:13.227Z,7.82
2022-11-05T04:02:13.317Z,7.79
2022-11-05T04:03:13.401Z,7.77
2022-11-05T04:04:13.175Z,7.77
2022-11-05T04:05:13.148Z,7.76
2022-11-05T04:06:14.104Z,7.73
2022-11-05T04:07:13.154Z,7.71
2022-11-05T04:08:14.608Z,7.67
2022-11-05T04:09:13.099Z,7.66
2022-11-05T04:10:13.092Z,7.62
2022-11-05T04:11:13.093Z,7.62
2022-11-05T04:12:13.084Z,7.62
2022-11-05T04:13:13.289Z,7.58
2022-11-05T04:14:13.050Z,7.62
2022-11-05T04:15:13.025Z,7.60
2022-11-05T04:16:13.026Z,7.58
2022-11-05T04:17:13.030Z,7.57
2022-11-05T04:18:12.978Z,7.55
2022-11-05T04:19:12.985Z,7.55
2022-11-05T04:20:12.966Z,7.51
2022-11-05T04:21:12.947Z,7.50
2022-11-05T04:22:12.964Z,7.47
2022-11-05T04:23:13.234Z,7.48
2022-11-05T04:24:12.921Z,7.47
2022-11-05T04:25:12.899Z,7.47
2022-11-05T04:26:12.883Z,7.45
2022-11-05T04:27:12.909Z,7.44
2022-11-05T04:28:12.879Z,7.45
2022-11-05T04:29:12.869Z,7.44
2022-11-05T04:30:12.861Z,7.44
2022-11-05T04:31:12.858Z,7.42
2022-11-05T04:32:12.859Z,7.44
2022-11-05T04:33:13.176Z,7.44
2022-11-05T04:34:12.801Z,7.42
2022-11-05T04:35:12.769Z,7.42
2022-11-05T04:36:12.767Z,7.39
2022-11-05T04:37:12.770Z,7.41
2022-11-05T04:38:12.769Z,7.39
2022-11-05T04:39:12.716Z,7.37
2022-11-05T04:40:12.740Z,7.39
2022-11-05T04:41:12.691Z,7.37
2022-11-05T04:42:12.734Z,7.41
2022-11-05T04:43:15.097Z,7.41
2022-11-05T04:44:12.676Z,7.42
2022-11-05T04:45:12.637Z,7.41
2022-11-05T04:46:12.646Z,7.42
2022-11-05T04:47:12.643Z,7.42
2022-11-05T04:48:12.618Z,7.42
2022-11-05T04:49:12.605Z,7.45
2022-11-05T04:50:12.726Z,7.45
2022-11-05T04:51:12.563Z,7.45
2022-11-05T04:52:12.573Z,7.48
2022-11-05T04:53:12.935Z,7.48
2022-11-05T04:54:12.521Z,7.51
2022-11-05T04:55:12.568Z,7.51
2022-11-05T04:56:12.525Z,7.52
2022-11-05T04:57:12.508Z,7.52
2022-11-05T04:58:12.506Z,7.54
2022-11-05T04:59:12.515Z,7.55
2022-11-05T05:00:12.471Z,7.55
2022-11-05T05:01:12.515Z,7.57
2022-11-05T05:02:12.518Z,7.60
2022-11-05T05:03:12.827Z,7.58
2022-11-05T05:04:12.423Z,7.62
2022-11-05T05:05:12.379Z,7.63
2022-11-05T05:06:12.394Z,7.66
2022-11-05T05:07:12.407Z,7.66
2022-11-05T05:08:12.371Z,7.66
2022-11-05T05:09:12.340Z,7.67
2022-11-05T05:10:12.322Z,7.67
2022-11-05T05:11:12.325Z,7.67
2022-11-05T05:12:12.301Z,7.66
2022-11-05T05:13:12.548Z,7.66
2022-11-05T05:14:12.281Z,7.66
2022-11-05T05:15:12.272Z,7.62
2022-11-05T05:16:12.247Z,7.60
2022-11-05T05:17:12.241Z,7.60
2022-11-05T05:18:12.226Z,7.55
2022-11-05T05:19:12.242Z,7.55
2022-11-05T05:20:12.208Z,7.54
2022-11-05T05:21:12.169Z,7.50
2022-11-05T05:22:12.211Z,7.48
2022-11-05T05:23:12.538Z,7.47
2022-11-05T05:24:12.174Z,7.44
2022-11-05T05:25:12.116Z,7.42
2022-11-05T05:26:12.128Z,7.37
2022-11-05T05:27:12.137Z,7.37
2022-11-05T05:28:12.095Z,7.30
2022-11-05T05:29:12.098Z,7.29
2022-11-05T05:30:12.086Z,7.30
2022-11-05T05:31:12.070Z,7.26
2022-11-05T05:32:12.080Z,7.27
2022-11-05T05:33:12.301Z,7.29
2022-11-05T05:34:12.035Z,7.24
2022-11-05T05:35:12.039Z,7.24
2022-11-05T05:36:11.995Z,7.24
2022-11-05T05:37:12.004Z,7.23
2022-11-05T05:38:11.985Z,7.23
2022-11-05T05:39:11.958Z,7.21
2022-11-05T05:40:11.958Z,7.21
2022-11-05T05:41:11.923Z,7.18
2022-11-05T05:42:11.975Z,7.16
2022-11-05T05:43:12.295Z,7.14
2022-11-05T05:44:11.900Z,7.09
2022-11-05T05:45:11.895Z,7.09
2022-11-05T05:46:11.907Z,7.09
2022-11-05T05:47:11.863Z,7.08
2022-11-05T05:48:11.853Z,7.08
2022-11-05T05:49:12.598Z,7.08
2022-11-05T05:50:11.802Z,7.07
2022-11-05T05:51:11.812Z,7.01
2022-11-05T05:52:11.807Z,7.04
2022-11-05T05:53:12.248Z,7.04
2022-11-05T05:54:11.814Z,7.05
2022-11-05T05:55:11.763Z,7.00
2022-11-05T05:56:11.768Z,7.01
2022-11-05T05:57:11.774Z,6.99
2022-11-05T05:58:11.733Z,6.99
2022-11-05T05:59:11.724Z,6.97
2022-11-05T06:00:11.694Z,6.94
2022-11-05T06:01:17.189Z,6.94
2022-11-05T06:02:12.904Z,6.94
2022-11-05T06:03:12.019Z,6.94
2022-11-05T06:04:11.658Z,6.93
2022-11-05T06:05:11.620Z,6.91
2022-11-05T06:06:11.634Z,6.91
2022-11-05T06:07:11.630Z,6.90
2022-11-05T06:08:11.599Z,6.90
2022-11-05T06:09:11.599Z,6.89
2022-11-05T06:10:11.687Z,6.87
2022-11-05T06:11:11.629Z,6.83
2022-11-05T06:12:11.562Z,6.83
2022-11-05T06:13:11.886Z,6.86
2022-11-05T06:14:11.534Z,6.86
2022-11-05T06:15:11.492Z,6.83
2022-11-05T06:16:11.511Z,6.86
2022-11-05T06:17:11.501Z,6.86
2022-11-05T06:18:11.479Z,6.87
2022-11-05T06:19:11.452Z,6.86
2022-11-05T06:20:11.470Z,6.86
2022-11-05T06:21:11.438Z,6.86
2022-11-05T06:22:11.397Z,6.87
2022-11-05T06:23:11.820Z,6.86
2022-11-05T06:24:11.416Z,6.86
2022-11-05T06:25:11.369Z,6.82
2022-11-05T06:26:11.363Z,6.87
2022-11-05T06:27:11.333Z,6.87
2022-11-05T06:28:11.363Z,6.93
2022-11-05T06:29:18.417Z,6.91
2022-11-05T06:30:11.304Z,6.94
2022-11-05T06:31:11.270Z,6.93
2022-11-05T06:32:11.279Z,6.91
2022-11-05T06:33:11.571Z,6.89
2022-11-05T06:34:11.269Z,6.87
2022-11-05T06:35:11.248Z,6.87
2022-11-05T06:36:11.214Z,6.82
2022-11-05T06:37:11.208Z,6.81
2022-11-05T06:38:11.210Z,6.83
2022-11-05T06:39:11.188Z,6.86
2022-11-05T06:40:11.167Z,6.82
2022-11-05T06:41:11.145Z,6.82
2022-11-05T06:42:18.259Z,6.79
2022-11-05T06:43:12.576Z,6.79
2022-11-05T06:44:11.115Z,6.81
2022-11-05T06:45:11.115Z,6.79
2022-11-05T06:46:11.091Z,6.78
2022-11-05T06:47:11.079Z,6.76
2022-11-05T06:48:11.066Z,6.76
2022-11-05T06:49:11.043Z,6.75
2022-11-05T06:50:11.036Z,6.73
2022-11-05T06:51:11.013Z,6.75
2022-11-05T06:52:11.015Z,6.73
2022-11-05T06:53:11.407Z,6.75
2022-11-05T06:54:10.988Z,6.75
2022-11-05T06:55:10.961Z,6.76
2022-11-05T06:56:10.965Z,6.78
2022-11-05T06:57:10.938Z,6.79
2022-11-05T06:58:10.935Z,6.81
2022-11-05T06:59:10.936Z,6.81
2022-11-05T07:00:10.911Z,6.81
2022-11-05T07:01:11.003Z,6.81
2022-11-05T07:02:10.980Z,6.82
2022-11-05T07:03:11.170Z,6.82
2022-11-05T07:04:10.862Z,6.83
2022-11-05T07:05:10.881Z,6.82
2022-11-05T07:06:10.828Z,6.82
2022-11-05T07:07:10.823Z,6.83
2022-11-05T07:08:10.857Z,6.86
2022-11-05T07:09:10.782Z,6.86
2022-11-05T07:10:10.782Z,6.86
2022-11-05T07:11:10.774Z,6.89
2022-11-05T07:12:10.762Z,6.93
2022-11-05T07:13:11.190Z,6.97
2022-11-05T07:14:10.732Z,6.97
2022-11-05T07:15:10.724Z,7.04
2022-11-05T07:16:10.696Z,7.04
2022-11-05T07:17:10.693Z,7.08
2022-11-05T07:18:10.702Z,7.08
2022-11-05T07:19:10.671Z,7.07
2022-11-05T07:20:10.648Z,7.09
2022-11-05T07:21:10.641Z,7.09
2022-11-05T07:22:10.644Z,7.11
2022-11-05T07:23:11.053Z,7.12
2022-11-05T07:24:10.597Z,7.15
2022-11-05T07:25:10.598Z,7.16
2022-11-05T07:26:10.568Z,7.19
2022-11-05T07:27:10.561Z,7.19
2022-11-05T07:28:10.562Z,7.23
2022-11-05T07:29:10.551Z,7.21
2022-11-05T07:30:10.533Z,7.24
2022-11-05T07:31:10.525Z,7.29
2022-11-05T07:32:10.494Z,7.30
2022-11-05T07:33:10.833Z,7.33
2022-11-05T07:34:10.486Z,7.36
2022-11-05T07:35:10.447Z,7.37
2022-11-05T07:36:10.435Z,7.42
2022-11-05T07:37:10.457Z,7.45
2022-11-05T07:38:10.449Z,7.47
2022-11-05T07:39:10.407Z,7.50
2022-11-05T07:40:10.396Z,7.51
2022-11-05T07:41:10.486Z,7.52
2022-11-05T07:42:10.363Z,7.54
2022-11-05T07:43:10.748Z,7.57
2022-11-05T07:44:10.347Z,7.62
2022-11-05T07:45:10.326Z,7.60
2022-11-05T07:46:13.784Z,7.62
2022-11-05T07:47:10.293Z,7.63
2022-11-05T07:48:10.339Z,7.67
2022-11-05T07:49:10.263Z,7.71
2022-11-05T07:50:10.267Z,7.73
2022-11-05T07:51:10.252Z,7.76
2022-11-05T07:52:10.253Z,7.81
2022-11-05T07:53:10.589Z,7.84
2022-11-05T07:54:10.210Z,7.86
2022-11-05T07:55:10.207Z,7.91
2022-11-05T07:56:10.212Z,7.95
2022-11-05T07:57:10.182Z,7.95
2022-11-05T07:58:10.199Z,7.99
2022-11-05T07:59:10.132Z,8.00
2022-11-05T08:00:10.124Z,8.04
2022-11-05T08:01:10.321Z,8.04
2022-11-05T08:02:10.388Z,8.06
2022-11-05T08:03:10.309Z,8.07
2022-11-05T08:04:10.089Z,8.09
2022-11-05T08:05:10.075Z,8.07
2022-11-05T08:06:10.090Z,8.10
2022-11-05T08:07:10.094Z,8.13
2022-11-05T08:08:10.041Z,8.14
2022-11-05T08:09:10.029Z,8.17
2022-11-05T08:10:10.002Z,8.18
2022-11-05T08:11:09.995Z,8.21
2022-11-05T08:12:09.990Z,8.22
2022-11-05T08:13:10.437Z,8.25
2022-11-05T08:14:09.971Z,8.28
2022-11-05T08:15:09.955Z,8.28
2022-11-05T08:16:09.932Z,8.31
2022-11-05T08:17:10.825Z,8.32
2022-11-05T08:18:09.940Z,8.36
2022-11-05T08:19:09.898Z,8.39
2022-11-05T08:20:09.889Z,8.42
2022-11-05T08:21:09.871Z,8.42
2022-11-05T08:22:09.860Z,8.40
2022-11-05T08:23:10.283Z,8.42
2022-11-05T08:24:09.835Z,8.42
2022-11-05T08:25:09.816Z,8.43
2022-11-05T08:26:09.806Z,8.45
2022-11-05T08:27:09.776Z,8.45
2022-11-05T08:28:09.767Z,8.45
2022-11-05T08:29:09.769Z,8.46
2022-11-05T08:30:09.759Z,8.47
2022-11-05T08:31:09.736Z,8.47
2022-11-05T08:32:09.739Z,8.49
2022-11-05T08:33:10.143Z,8.49
2022-11-05T08:34:09.726Z,8.50
2022-11-05T08:35:09.694Z,8.52
2022-11-05T08:36:09.670Z,8.55
2022-11-05T08:37:09.657Z,8.58
2022-11-05T08:38:09.655Z,8.61
2022-11-05T08:39:14.243Z,8.61
2022-11-05T08:40:10.639Z,8.64
2022-11-05T08:41:09.616Z,8.64
2022-11-05T08:42:09.623Z,8.65
2022-11-05T08:43:09.911Z,8.67
2022-11-05T08:44:09.573Z,8.68
2022-11-05T08:45:09.563Z,8.73
2022-11-05T08:46:09.552Z,8.73
2022-11-05T08:47:09.552Z,8.78
2022-11-05T08:48:09.528Z,8.76
2022-11-05T08:49:09.516Z,8.75
2022-11-05T08:50:09.496Z,8.76
2022-11-05T08:51:09.488Z,8.79
2022-11-05T08:52:09.481Z,8.80
2022-11-05T08:53:09.814Z,8.83
2022-11-05T08:54:09.439Z,8.85
2022-11-05T08:55:09.439Z,8.89
2022-11-05T08:56:09.402Z,8.91
2022-11-05T08:57:09.414Z,8.89
2022-11-05T08:58:09.385Z,8.91
2022-11-05T08:59:09.363Z,8.89
2022-11-05T09:00:09.383Z,8.93
2022-11-05T09:01:09.381Z,8.96
2022-11-05T09:02:09.513Z,8.97
2022-11-05T09:03:09.839Z,9.00
2022-11-05T09:04:09.303Z,9.03
2022-11-05T09:05:09.309Z,9.03
2022-11-05T09:06:09.303Z,9.04
2022-11-05T09:07:09.269Z,9.03
2022-11-05T09:08:09.271Z,9.06
2022-11-05T09:09:09.249Z,9.10
2022-11-05T09:10:09.263Z,9.13
2022-11-05T09:11:09.237Z,9.15
2022-11-05T09:12:13.244Z,9.15
2022-11-05T09:13:14.751Z,9.17
2022-11-05T09:14:10.222Z,9.19
2022-11-05T09:15:09.221Z,9.19
2022-11-05T09:16:09.148Z,9.22
2022-11-05T09:17:09.138Z,9.19
2022-11-05T09:18:09.151Z,9.22
2022-11-05T09:19:09.131Z,9.24
2022-11-05T09:20:09.125Z,9.24
2022-11-05T09:21:09.100Z,9.27
2022-11-05T09:22:09.087Z,9.30
2022-11-05T09:23:09.489Z,9.32
2022-11-05T09:24:09.060Z,9.31
2022-11-05T09:25:09.052Z,9.32
2022-11-05T09:26:09.039Z,9.35
2022-11-05T09:27:09.030Z,9.38
2022-11-05T09:28:09.947Z,9.40
2022-11-05T09:29:14.081Z,9.42
2022-11-05T09:30:09.982Z,9.40
2022-11-05T09:31:09.029Z,9.42
2022-11-05T09:32:09.030Z,9.44
2022-11-05T09:33:09.298Z,9.45
2022-11-05T09:34:08.939Z,9.52
2022-11-05T09:35:08.940Z,9.52
2022-11-05T09:36:08.917Z,9.53
2022-11-05T09:37:08.909Z,9.55
2022-11-05T09:38:08.890Z,9.58
2022-11-05T09:39:08.904Z,9.59
2022-11-05T09:40:08.871Z,9.59
2022-11-05T09:41:08.849Z,9.59
2022-11-05T09:42:08.856Z,9.59
2022-11-05T09:43:09.140Z,9.59
2022-11-05T09:44:08.805Z,9.60
2022-11-05T09:45:08.806Z,9.60
2022-11-05T09:46:08.784Z,9.62
2022-11-05T09:47:08.761Z,9.65
2022-11-05T09:48:08.741Z,9.68
2022-11-05T09:49:08.759Z,9.71
2022-11-05T09:50:08.745Z,9.73
2022-11-05T09:51:08.719Z,9.75
2022-11-05T09:52:08.705Z,9.78
2022-11-05T09:53:08.944Z,9.80
2022-11-05T09:54:08.694Z,9.81
2022-11-05T09:55:08.651Z,9.83
2022-11-05T09:56:08.641Z,9.81
2022-11-05T09:57:08.632Z,9.83
2022-11-05T09:58:08.610Z,9.85
2022-11-05T09:59:08.671Z,9.88
2022-11-05T10:00:08.618Z,9.93
2022-11-05T10:01:08.666Z,9.93
2022-11-05T10:02:08.726Z,9.95
2022-11-05T10:03:08.871Z,9.96
2022-11-05T10:04:08.554Z,10.01
2022-11-05T10:05:10.273Z,10.04
2022-11-05T10:06:08.548Z,10.06
2022-11-05T10:07:08.500Z,10.09
2022-11-05T10:08:08.509Z,10.11
2022-11-05T10:09:08.492Z,10.11
2022-11-05T10:10:08.484Z,10.16
2022-11-05T10:11:08.471Z,10.16
2022-11-05T10:12:08.436Z,10.20
2022-11-05T10:13:08.640Z,10.20
2022-11-05T10:14:08.447Z,10.20
2022-11-05T10:15:08.450Z,10.20
2022-11-05T10:16:08.400Z,10.24
2022-11-05T10:17:08.386Z,10.25
2022-11-05T10:18:08.389Z,10.25
2022-11-05T10:19:08.364Z,10.28
2022-11-05T10:20:08.346Z,10.29
2022-11-05T10:21:08.346Z,10.31
2022-11-05T10:22:08.309Z,10.28
2022-11-05T10:23:09.509Z,10.31
2022-11-05T10:24:08.296Z,10.32
2022-11-05T10:25:08.308Z,10.32
2022-11-05T10:26:08.267Z,10.35
2022-11-05T10:27:08.245Z,10.35
2022-11-05T10:28:08.254Z,10.36
2022-11-05T10:29:08.276Z,10.35
2022-11-05T10:30:08.218Z,10.38
2022-11-05T10:31:08.211Z,10.36
2022-11-05T10:32:08.195Z,10.38
2022-11-05T10:33:08.253Z,10.39
2022-11-05T10:34:08.170Z,10.42
2022-11-05T10:35:08.184Z,10.44
2022-11-05T10:36:08.145Z,10.47
2022-11-05T10:37:08.147Z,10.49
2022-11-05T10:38:08.118Z,10.47
2022-11-05T10:39:08.104Z,10.46
2022-11-05T10:40:08.086Z,10.46
2022-11-05T10:41:08.063Z,10.49
2022-11-05T10:42:08.067Z,10.49
2022-11-05T10:43:08.071Z,10.49
2022-11-05T10:44:08.055Z,10.47
2022-11-05T10:45:08.014Z,10.49
2022-11-05T10:46:08.016Z,10.49
2022-11-05T10:47:08.007Z,10.47
2022-11-05T10:48:08.019Z,10.49
2022-11-05T10:49:07.995Z,10.52
2022-11-05T10:50:07.975Z,10.55
2022-11-05T10:51:07.947Z,10.55
2022-11-05T10:52:07.934Z,10.58
2022-11-05T10:53:07.954Z,10.60
2022-11-05T10:54:07.909Z,10.63
2022-11-05T10:55:07.902Z,10.65
2022-11-05T10:56:07.870Z,10.62
2022-11-05T10:57:07.879Z,10.65
2022-11-05T10:58:07.864Z,10.66
2022-11-05T10:59:12.005Z,10.69
2022-11-05T11:00:07.849Z,10.73
2022-11-05T11:01:07.878Z,10.72
2022-11-05T11:02:07.948Z,10.73
2022-11-05T11:03:07.820Z,10.72
2022-11-05T11:04:07.811Z,10.73
2022-11-05T11:05:07.781Z,10.72
2022-11-05T11:06:07.768Z,10.73
2022-11-05T11:07:07.742Z,10.75
2022-11-05T11:08:07.731Z,10.73
2022-11-05T11:09:07.708Z,10.76
2022-11-05T11:10:07.798Z,10.76
2022-11-05T11:11:07.692Z,10.80
2022-11-05T11:12:07.660Z,10.86
2022-11-05T11:13:07.656Z,10.87
2022-11-05T11:14:07.658Z,10.90
2022-11-05T11:15:07.671Z,10.98
2022-11-05T11:16:07.621Z,11.01
2022-11-05T11:17:07.611Z,11.05
2022-11-05T11:18:07.608Z,11.08
2022-11-05T11:19:07.652Z,11.12
2022-11-05T11:20:07.587Z,11.20
2022-11-05T11:21:07.580Z,11.21
2022-11-05T11:22:07.572Z,11.21
2022-11-05T11:23:07.551Z,11.26
2022-11-05T11:24:07.517Z,11.26
2022-11-05T11:25:07.506Z,11.27
2022-11-05T11:26:07.502Z,11.30
2022-11-05T11:27:07.475Z,11.30
2022-11-05T11:28:07.471Z,11.31
2022-11-05T11:29:07.458Z,11.33
2022-11-05T11:30:07.463Z,11.36
2022-11-05T11:31:07.415Z,11.36
2022-11-05T11:32:07.440Z,11.36
2022-11-05T11:33:07.416Z,11.38
2022-11-05T11:34:07.389Z,11.38
2022-11-05T11:35:07.397Z,11.42
2022-11-05T11:36:07.351Z,11.44
2022-11-05T11:37:07.345Z,11.48
2022-11-05T11:38:07.333Z,11.49
2022-11-05T11:39:07.314Z,11.51
2022-11-05T11:40:10.103Z,11.53
2022-11-05T11:41:07.309Z,11.53
2022-11-05T11:42:08.248Z,11.53
2022-11-05T11:43:07.305Z,11.56
2022-11-05T11:44:07.251Z,11.56
2022-11-05T11:45:07.252Z,11.57
2022-11-05T11:46:12.528Z,11.57
2022-11-05T11:47:08.211Z,11.56
2022-11-05T11:48:07.224Z,11.56
2022-11-05T11:49:07.257Z,11.56
2022-11-05T11:50:07.236Z,11.57
2022-11-05T11:51:07.165Z,11.59
2022-11-05T11:52:07.221Z,11.57
2022-11-05T11:53:07.142Z,11.60
2022-11-05T11:54:07.134Z,11.62
2022-11-05T11:55:07.122Z,11.59
2022-11-05T11:56:07.135Z,11.57
2022-11-05T11:57:10.312Z,11.59
2022-11-05T11:58:08.080Z,11.57
2022-11-05T11:59:07.060Z,11.56
2022-11-05T12:00:09.192Z,11.57
2022-11-05T12:01:07.033Z,11.57
2022-11-05T12:02:07.198Z,11.59
2022-11-05T12:03:07.095Z,11.62
2022-11-05T12:04:07.002Z,11.64
2022-11-05T12:05:07.006Z,11.67
2022-11-05T12:06:06.968Z,11.67
2022-11-05T12:07:06.978Z,11.70
2022-11-05T12:08:06.942Z,11.74
2022-11-05T12:09:07.238Z,11.78
2022-11-05T12:10:06.949Z,11.79
2022-11-05T12:11:06.922Z,11.78
2022-11-05T12:12:06.932Z,11.81
2022-11-05T12:13:06.890Z,11.82
2022-11-05T12:14:06.857Z,11.82
2022-11-05T12:15:06.867Z,11.81
2022-11-05T12:16:06.844Z,11.81
2022-11-05T12:17:06.839Z,11.79
2022-11-05T12:18:07.557Z,11.81
2022-11-05T12:19:06.821Z,11.78
2022-11-05T12:20:06.865Z,11.78
2022-11-05T12:21:06.817Z,11.81
2022-11-05T12:22:06.759Z,11.81
2022-11-05T12:23:06.761Z,11.82
2022-11-05T12:24:06.751Z,11.84
2022-11-05T12:25:06.757Z,11.81
2022-11-05T12:26:06.736Z,11.79
2022-11-05T12:27:06.737Z,11.78
2022-11-05T12:28:06.701Z,11.74
2022-11-05T12:29:18.285Z,11.72
2022-11-05T12:31:17.165Z,11.74
2022-11-05T12:32:17.189Z,11.67
2022-11-05T12:33:17.527Z,11.70
2022-11-05T12:34:17.135Z,11.69
2022-11-05T12:35:17.129Z,11.70
2022-11-05T12:36:17.085Z,11.67
2022-11-05T12:37:17.085Z,11.69
2022-11-05T12:38:17.054Z,11.72
2022-11-05T12:39:17.075Z,11.70
2022-11-05T12:40:17.034Z,11.72
2022-11-05T12:41:17.024Z,11.72
2022-11-05T12:42:17.001Z,11.72
2022-11-05T12:43:17.523Z,11.75
2022-11-05T12:44:16.979Z,11.75
2022-11-05T12:45:17.045Z,11.74
2022-11-05T12:46:16.963Z,11.69
2022-11-05T12:47:16.968Z,11.66
2022-11-05T12:48:16.973Z,11.63
2022-11-05T12:49:16.949Z,11.62
2022-11-05T12:50:16.920Z,11.60
2022-11-05T12:51:16.942Z,11.57
2022-11-05T12:52:16.892Z,11.56
2022-11-05T12:53:16.881Z,11.56
2022-11-05T12:54:16.865Z,11.56
2022-11-05T12:55:16.861Z,11.56
2022-11-05T12:56:16.834Z,11.54
2022-11-05T12:57:16.830Z,11.54
2022-11-05T12:58:16.831Z,11.56
2022-11-05T12:59:16.822Z,11.56
2022-11-05T13:00:16.854Z,11.57
2022-11-05T13:01:16.888Z,11.57
2022-11-05T13:02:16.939Z,11.57
2022-11-05T13:03:16.747Z,11.59
2022-11-05T13:04:16.745Z,11.57
2022-11-05T13:05:16.767Z,11.56
2022-11-05T13:06:16.721Z,11.56
2022-11-05T13:07:16.740Z,11.57
2022-11-05T13:08:16.729Z,11.57
2022-11-05T13:09:16.730Z,11.59
2022-11-05T13:10:17.700Z,11.59
2022-11-05T13:11:16.659Z,11.60
2022-11-05T13:12:16.651Z,11.62
2022-11-05T13:13:16.637Z,11.63